createdAt,value
2022-10-15T00:02:46.177Z,92.55
2022-10-15T00:05:47.690Z,93.12
2022-10-15T00:08:49.250Z,93.36
2022-10-15T00:11:51.343Z,93.80
2022-10-15T00:14:52.925Z,94.40
2022-10-15T00:17:54.429Z,95.08
2022-10-15T00:20:56.010Z,94.57
2022-10-15T00:23:57.596Z,94.72
2022-10-15T00:26:59.127Z,94.49
2022-10-15T00:30:00.711Z,94.78
2022-10-15T00:33:02.213Z,94.59
2022-10-15T00:36:05.432Z,94.53
2022-10-15T00:39:07.257Z,94.81
2022-10-15T00:42:10.008Z,94.76
2022-10-15T00:45:12.194Z,94.22
2022-10-15T00:48:13.738Z,94.32
2022-10-15T00:51:15.625Z,93.97
2022-10-15T00:54:17.208Z,93.84
2022-10-15T00:57:18.721Z,93.50
2022-10-15T01:00:20.436Z,93.42
2022-10-15T01:03:22.219Z,93.74
2022-10-15T01:06:24.533Z,93.77
2022-10-15T01:09:26.389Z,95.00
2022-10-15T01:12:31.529Z,95.29
2022-10-15T01:15:39.273Z,95.94
2022-10-15T01:18:42.499Z,96.25
2022-10-15T01:22:04.381Z,97.11
2022-10-15T01:25:06.107Z,97.52
2022-10-15T01:28:22.906Z,97.42
2022-10-15T01:31:24.465Z,96.90
2022-10-15T01:34:47.848Z,97.00
2022-10-15T01:37:50.330Z,96.96
2022-10-15T01:40:51.804Z,97.22
2022-10-15T01:43:53.548Z,97.60
2022-10-15T01:47:23.049Z,98.19
2022-10-15T01:50:25.920Z,98.07
2022-10-15T01:53:27.802Z,98.21
2022-10-15T01:56:29.453Z,98.17
2022-10-15T01:59:31.623Z,99.00
2022-10-15T02:02:33.152Z,98.64
2022-10-15T02:05:44.137Z,99.09
2022-10-15T02:08:49.082Z,99.17
2022-10-15T02:12:01.472Z,99.58
2022-10-15T02:15:06.532Z,99.43
2022-10-15T02:18:26.766Z,99.85
2022-10-15T02:21:32.725Z,99.73
2022-10-15T02:24:55.592Z,99.52
2022-10-15T02:27:58.412Z,99.54
2022-10-15T02:31:02.120Z,99.44
2022-10-15T02:34:06.008Z,99.50
2022-10-15T02:37:07.653Z,100.00
2022-10-15T02:40:09.526Z,100.00
2022-10-15T02:43:12.184Z,100.00
2022-10-15T02:46:13.702Z,99.96
2022-10-15T02:49:17.889Z,99.97
2022-10-15T02:52:19.694Z,100.00
2022-10-15T02:55:21.472Z,100.00
2022-10-15T02:58:23.593Z,100.00
2022-10-15T03:01:26.119Z,100.00
2022-10-15T03:04:28.117Z,100.00
2022-10-15T03:07:30.037Z,100.00
2022-10-15T03:10:31.844Z,100.00
2022-10-15T03:13:38.241Z,100.00
2022-10-15T03:16:40.302Z,100.00
2022-10-15T03:19:42.113Z,100.00
2022-10-15T03:22:43.742Z,100.00
2022-10-15T03:25:45.306Z,100.00
2022-10-15T03:28:56.244Z,100.00
2022-10-15T03:32:10.056Z,100.00
2022-10-15T03:35:11.610Z,100.00
2022-10-15T03:38:13.316Z,100.00
2022-10-15T03:41:15.102Z,100.00
2022-10-15T03:44:17.889Z,100.00
2022-10-15T03:47:28.149Z,100.00
2022-10-15T03:50:31.453Z,100.00
2022-10-15T03:53:36.644Z,100.00
2022-10-15T03:56:38.242Z,100.00
2022-10-15T03:59:55.268Z,100.00
2022-10-15T04:02:59.457Z,100.00
2022-10-15T04:06:03.534Z,100.00
2022-10-15T04:09:05.925Z,100.00
2022-10-15T04:12:07.635Z,100.00
2022-10-15T04:15:09.523Z,100.00
2022-10-15T04:18:16.833Z,100.00
2022-10-15T04:21:19.605Z,100.00
2022-10-15T04:24:26.189Z,100.00
2022-10-15T04:27:27.988Z,100.00
2022-10-15T04:30:38.941Z,100.00
2022-10-15T04:33:43.633Z,100.00
2022-10-15T04:36:45.245Z,100.00
2022-10-15T04:39:50.170Z,100.00
2022-10-15T04:42:52.485Z,100.00
2022-10-15T04:46:00.260Z,100.00
2022-10-15T04:49:02.565Z,100.00
2022-10-15T04:52:04.200Z,100.00
2022-10-15T04:55:15.469Z,100.00
2022-10-15T04:58:17.030Z,100.00
2022-10-15T05:01:19.455Z,100.00
2022-10-15T05:04:35.327Z,100.00
2022-10-15T05:07:37.291Z,100.00
2022-10-15T05:10:38.892Z,100.00
2022-10-15T05:13:43.006Z,100.00
2022-10-15T05:16:45.127Z,100.00
2022-10-15T05:19:47.282Z,100.00
2022-10-15T05:22:53.184Z,100.00
2022-10-15T05:25:55.830Z,100.00
2022-10-15T05:29:00.469Z,100.00
2022-10-15T05:32:05.506Z,100.00
2022-10-15T05:35:07.258Z,100.00
2022-10-15T05:38:22.473Z,100.00
2022-10-15T05:41:24.260Z,100.00
2022-10-15T05:44:25.892Z,100.00
2022-10-15T05:47:27.466Z,100.00
2022-10-15T05:50:46.412Z,100.00
2022-10-15T05:53:57.062Z,100.00
2022-10-15T05:56:58.946Z,100.00
2022-10-15T06:00:00.441Z,100.00
2022-10-15T06:03:01.907Z,100.00
2022-10-15T06:06:03.489Z,100.00
2022-10-15T06:09:10.383Z,100.00
2022-10-15T06:12:11.865Z,100.00
2022-10-15T06:15:13.462Z,100.00
2022-10-15T06:18:16.274Z,100.00
2022-10-15T06:21:17.806Z,100.00
2022-10-15T06:24:19.284Z,100.00
2022-10-15T06:27:20.926Z,100.00
2022-10-15T06:30:22.523Z,100.00
2022-10-15T06:33:24.013Z,100.00
2022-10-15T06:36:25.948Z,100.00
2022-10-15T06:39:27.463Z,100.00
2022-10-15T06:42:28.952Z,100.00
2022-10-15T06:45:30.513Z,100.00
2022-10-15T06:48:32.807Z,100.00
2022-10-15T06:51:34.445Z,100.00
2022-10-15T06:54:35.946Z,100.00
2022-10-15T06:57:38.960Z,100.00
2022-10-15T07:00:40.470Z,100.00
2022-10-15T07:03:42.074Z,100.00
2022-10-15T07:06:43.865Z,100.00
2022-10-15T07:09:46.823Z,100.00
2022-10-15T07:12:48.508Z,100.00
2022-10-15T07:15:53.928Z,100.00
2022-10-15T07:18:55.534Z,100.00
2022-10-15T07:21:57.077Z,100.00
2022-10-15T07:24:58.652Z,100.00
2022-10-15T07:28:00.215Z,100.00
2022-10-15T07:31:02.235Z,100.00
2022-10-15T07:34:03.752Z,100.00
2022-10-15T07:37:05.339Z,100.00
2022-10-15T07:40:07.156Z,100.00
2022-10-15T07:43:08.942Z,100.00
2022-10-15T07:46:11.648Z,100.00
2022-10-15T07:49:13.204Z,100.00
2022-10-15T07:52:14.724Z,100.00
2022-10-15T07:55:16.289Z,100.00
2022-10-15T07:58:22.848Z,100.00
2022-10-15T08:01:24.596Z,100.00
2022-10-15T08:04:26.161Z,100.00
2022-10-15T08:07:27.722Z,100.00
2022-10-15T08:10:29.320Z,100.00
2022-10-15T08:13:30.874Z,100.00
2022-10-15T08:16:32.411Z,100.00
2022-10-15T08:19:34.012Z,100.00
2022-10-15T08:22:35.545Z,100.00
2022-10-15T08:25:37.057Z,100.00
2022-10-15T08:28:38.619Z,100.00
2022-10-15T08:31:40.344Z,100.00
2022-10-15T08:34:41.879Z,100.00
2022-10-15T08:37:43.433Z,100.00
2022-10-15T08:41:03.028Z,100.00
2022-10-15T08:44:04.836Z,100.00
2022-10-15T08:47:07.658Z,100.00
2022-10-15T08:50:32.551Z,100.00
2022-10-15T08:53:45.792Z,100.00
2022-10-15T08:56:47.704Z,100.00
2022-10-15T08:59:58.699Z,100.00
2022-10-15T09:03:18.630Z,100.00
2022-10-15T09:06:24.225Z,100.00
2022-10-15T09:09:39.742Z,100.00
2022-10-15T09:12:53.781Z,100.00
2022-10-15T09:16:05.740Z,100.00
2022-10-15T09:19:12.493Z,96.20
2022-10-15T09:22:15.474Z,97.78
2022-10-15T09:25:21.402Z,93.83
2022-10-15T09:28:25.796Z,95.12
2022-10-15T09:31:29.876Z,95.37
2022-10-15T09:34:34.812Z,95.12
2022-10-15T09:37:39.176Z,94.83
2022-10-15T09:40:40.700Z,93.62
2022-10-15T09:43:43.269Z,92.96
2022-10-15T09:46:45.502Z,95.22
2022-10-15T09:49:47.460Z,90.99
2022-10-15T09:52:56.297Z,90.75
2022-10-15T09:56:08.321Z,91.78
2022-10-15T09:59:17.794Z,91.41
2022-10-15T10:02:19.864Z,90.59
2022-10-15T10:05:31.956Z,92.56
2022-10-15T10:08:59.741Z,89.54
2022-10-15T10:12:02.361Z,89.41
2022-10-15T10:15:05.509Z,90.88
2022-10-15T10:18:09.931Z,88.41
2022-10-15T10:21:22.781Z,90.63
2022-10-15T10:24:28.429Z,85.86
2022-10-15T10:27:30.133Z,85.64
2022-10-15T10:30:57.871Z,87.28
2022-10-15T10:34:02.557Z,83.88
2022-10-15T10:37:05.080Z,83.46
2022-10-15T10:40:07.199Z,86.94
2022-10-15T10:43:18.790Z,83.63
2022-10-15T10:46:22.406Z,82.07
2022-10-15T10:49:30.445Z,80.05
2022-10-15T10:52:32.952Z,81.30
2022-10-15T10:55:37.761Z,75.83
2022-10-15T10:58:39.281Z,74.64
2022-10-15T11:01:40.821Z,74.20
2022-10-15T11:04:42.361Z,75.49
2022-10-15T11:07:43.910Z,71.22
2022-10-15T11:11:04.254Z,71.96
2022-10-15T11:14:17.803Z,69.42
2022-10-15T11:17:37.838Z,71.12
2022-10-15T11:20:59.715Z,69.34
2022-10-15T11:24:15.352Z,72.69
2022-10-15T11:27:28.436Z,71.29
2022-10-15T11:30:32.346Z,72.09
2022-10-15T11:33:49.236Z,70.30
2022-10-15T11:37:04.107Z,67.31
2022-10-15T11:40:19.423Z,64.09
2022-10-15T11:43:34.730Z,63.78
2022-10-15T11:46:36.227Z,63.04
2022-10-15T11:49:38.084Z,66.61
2022-10-15T11:52:45.472Z,68.47
2022-10-15T11:55:50.738Z,68.23
2022-10-15T11:59:04.912Z,66.63
2022-10-15T12:02:15.748Z,66.24
2022-10-15T12:05:18.331Z,68.73
2022-10-15T12:08:20.041Z,71.60
2022-10-15T12:11:27.368Z,72.35
2022-10-15T12:14:31.888Z,73.31
2022-10-15T12:17:46.124Z,72.95
2022-10-15T12:20:47.722Z,73.08
2022-10-15T12:23:49.194Z,71.57
2022-10-15T12:26:50.714Z,70.78
2022-10-15T12:30:05.206Z,70.40
2022-10-15T12:33:22.245Z,68.88
2022-10-15T12:36:28.169Z,69.45
2022-10-15T12:42:51.906Z,70.58
2022-10-15T12:45:55.432Z,68.42
2022-10-15T12:48:58.255Z,62.55
2022-10-15T12:52:00.117Z,63.90
2022-10-15T12:55:19.823Z,66.58
2022-10-15T12:58:37.528Z,67.43
2022-10-15T13:01:42.349Z,67.96
2022-10-15T13:04:43.981Z,68.31
2022-10-15T13:07:45.502Z,71.21
2022-10-15T13:10:48.763Z,71.76
2022-10-15T13:13:51.351Z,72.16
2022-10-15T13:16:52.926Z,73.55
2022-10-15T13:20:08.143Z,72.92
2022-10-15T13:23:30.159Z,73.34
2022-10-15T13:26:32.541Z,73.17
2022-10-15T13:29:34.419Z,74.02
2022-10-15T13:32:37.171Z,75.13
2022-10-15T13:35:38.713Z,74.49
2022-10-15T13:38:45.197Z,75.22
2022-10-15T13:41:48.720Z,75.42
2022-10-15T13:45:01.238Z,75.53
2022-10-15T13:48:03.369Z,74.07
2022-10-15T13:51:05.277Z,74.31
2022-10-15T13:54:16.853Z,75.72
2022-10-15T13:57:18.480Z,78.25
2022-10-15T14:00:21.500Z,78.26
2022-10-15T14:03:30.813Z,81.30
2022-10-15T14:06:33.555Z,84.79
2022-10-15T14:09:36.142Z,87.90
2022-10-15T14:12:37.700Z,93.67
2022-10-15T14:15:48.266Z,98.89
2022-10-15T14:18:51.030Z,100.00
2022-10-15T14:21:52.981Z,100.00
2022-10-15T14:24:54.888Z,98.86
2022-10-15T14:27:56.514Z,97.75
2022-10-15T14:30:58.263Z,98.20
2022-10-15T14:33:59.885Z,98.48
2022-10-15T14:37:01.983Z,98.46
2022-10-15T14:40:05.483Z,98.33
2022-10-15T14:43:13.560Z,97.99
2022-10-15T14:46:18.178Z,99.93
2022-10-15T14:49:23.866Z,100.00
2022-10-15T14:52:25.427Z,100.00
2022-10-15T14:55:28.721Z,100.00
2022-10-15T14:58:30.256Z,100.00
2022-10-15T15:01:33.928Z,100.00
2022-10-15T15:04:39.773Z,100.00
2022-10-15T15:07:41.312Z,100.00
2022-10-15T15:10:43.767Z,100.00
2022-10-15T15:13:45.824Z,100.00
2022-10-15T15:16:47.378Z,91.78
2022-10-15T15:19:49.862Z,87.31
2022-10-15T15:22:52.193Z,90.09
2022-10-15T15:25:54.240Z,85.25
2022-10-15T15:28:56.167Z,85.67
2022-10-15T15:31:57.703Z,89.71
2022-10-15T15:34:59.237Z,82.88
2022-10-15T15:38:00.789Z,76.99
2022-10-15T15:41:04.032Z,81.43
2022-10-15T15:44:07.439Z,75.79
2022-10-15T15:47:09.178Z,77.15
2022-10-15T15:50:10.738Z,76.05
2022-10-15T15:53:12.437Z,73.33
2022-10-15T15:56:14.075Z,75.28
2022-10-15T15:59:17.077Z,78.38
2022-10-15T16:02:19.473Z,78.95
2022-10-15T16:05:21.191Z,78.02
2022-10-15T16:08:22.730Z,80.67
2022-10-15T16:11:24.292Z,81.20
2022-10-15T16:14:25.816Z,82.75
2022-10-15T16:17:27.751Z,83.27
2022-10-15T16:20:29.425Z,84.65
2022-10-15T16:23:31.062Z,84.60
2022-10-15T16:26:33.032Z,85.29
2022-10-15T16:29:57.238Z,85.63
2022-10-15T16:32:58.852Z,85.61
2022-10-15T16:36:00.501Z,85.99
2022-10-15T16:39:02.201Z,85.22
2022-10-15T16:42:05.072Z,85.60
2022-10-15T16:45:06.933Z,86.16
2022-10-15T16:48:08.567Z,85.99
2022-10-15T16:51:10.266Z,85.09
2022-10-15T16:54:12.861Z,84.24
2022-10-15T16:57:14.437Z,84.12
2022-10-15T17:00:16.002Z,83.22
2022-10-15T17:03:17.538Z,83.61
2022-10-15T17:06:21.493Z,84.30
2022-10-15T17:09:23.783Z,84.40
2022-10-15T17:12:25.520Z,84.88
2022-10-15T17:15:27.476Z,84.77
2022-10-15T17:18:29.016Z,85.50
2022-10-15T17:21:31.433Z,85.44
2022-10-15T17:24:33.199Z,85.32
2022-10-15T17:27:35.738Z,85.61
2022-10-15T17:30:37.977Z,85.81
2022-10-15T17:33:40.137Z,85.37
2022-10-15T17:36:45.257Z,86.27
2022-10-15T17:39:47.026Z,85.92
2022-10-15T17:42:48.656Z,86.27
2022-10-15T17:45:50.230Z,86.45
2022-10-15T17:48:52.133Z,86.65
2022-10-15T17:51:54.593Z,87.10
2022-10-15T17:54:56.195Z,86.36
2022-10-15T17:58:00.891Z,86.04
2022-10-15T18:01:02.568Z,84.99
2022-10-15T18:04:05.889Z,85.00
2022-10-15T18:07:07.756Z,84.41
2022-10-15T18:10:11.458Z,84.22
2022-10-15T18:13:13.496Z,84.43
2022-10-15T18:16:18.237Z,84.04
2022-10-15T18:19:19.754Z,84.47
2022-10-15T18:22:21.301Z,84.47
2022-10-15T18:25:22.962Z,85.33
2022-10-15T18:28:24.513Z,88.47
2022-10-15T18:31:26.282Z,88.21
2022-10-15T18:34:27.966Z,87.11
2022-10-15T18:37:29.495Z,86.78
2022-10-15T18:40:40.932Z,87.25
2022-10-15T18:43:43.053Z,87.16
2022-10-15T18:46:45.513Z,87.40
2022-10-15T18:49:47.161Z,88.38
2022-10-15T18:52:48.933Z,88.59
2022-10-15T18:55:50.537Z,88.11
2022-10-15T18:58:55.012Z,88.25
2022-10-15T19:01:56.545Z,88.48
2022-10-15T19:04:58.125Z,88.56
2022-10-15T19:07:59.681Z,88.82
2022-10-15T19:11:08.570Z,89.23
2022-10-15T19:14:10.334Z,89.50
2022-10-15T19:17:12.835Z,90.45
2022-10-15T19:20:14.369Z,90.78
2022-10-15T19:23:15.965Z,91.05
2022-10-15T19:26:17.633Z,91.92
2022-10-15T19:29:19.601Z,92.18
2022-10-15T19:32:22.927Z,93.06
2022-10-15T19:35:24.469Z,93.62
2022-10-15T19:38:27.841Z,93.90
2022-10-15T19:41:29.371Z,93.94
2022-10-15T19:44:30.878Z,94.15
2022-10-15T19:47:32.368Z,93.62
2022-10-15T19:50:35.832Z,94.37
2022-10-15T19:53:43.465Z,93.89
2022-10-15T19:56:45.053Z,94.45
2022-10-15T19:59:46.633Z,94.42
2022-10-15T20:02:48.161Z,94.68
2022-10-15T20:05:49.837Z,94.16
2022-10-15T20:08:51.609Z,94.70
2022-10-15T20:11:53.129Z,95.27
2022-10-15T20:14:54.607Z,96.12
2022-10-15T20:17:56.086Z,96.88
2022-10-15T20:20:57.764Z,97.23
2022-10-15T20:23:59.676Z,96.85
2022-10-15T20:27:01.156Z,96.48
2022-10-15T20:30:02.862Z,95.52
2022-10-15T20:33:04.667Z,94.63
2022-10-15T20:36:07.460Z,94.42
2022-10-15T20:39:09.004Z,93.54
2022-10-15T20:42:10.503Z,93.20
2022-10-15T20:45:14.620Z,93.55
2022-10-15T20:48:20.395Z,93.49
2022-10-15T20:51:24.717Z,92.95
2022-10-15T20:54:29.230Z,93.66
2022-10-15T20:57:30.969Z,95.48
2022-10-15T21:00:32.522Z,99.22
2022-10-15T21:03:34.309Z,100.00
2022-10-15T21:06:35.877Z,100.00
2022-10-15T21:09:37.483Z,100.00
2022-10-15T21:12:39.133Z,100.00
2022-10-15T21:15:40.686Z,100.00
2022-10-15T21:18:42.707Z,100.00
2022-10-15T21:21:44.489Z,100.00
2022-10-15T21:24:46.069Z,100.00
2022-10-15T21:27:47.605Z,100.00
2022-10-15T21:30:49.398Z,100.00
2022-10-15T21:33:51.278Z,100.00
2022-10-15T21:36:54.559Z,100.00
2022-10-15T21:39:56.128Z,100.00
2022-10-15T21:42:58.884Z,100.00
2022-10-15T21:46:04.298Z,100.00
2022-10-15T21:49:08.431Z,99.10
2022-10-15T21:52:10.573Z,98.17
2022-10-15T21:55:12.449Z,97.96
2022-10-15T21:58:14.165Z,96.09
2022-10-15T22:01:21.972Z,95.16
2022-10-15T22:04:23.585Z,94.40
2022-10-15T22:07:25.378Z,93.61
2022-10-15T22:10:27.193Z,92.80
2022-10-15T22:13:28.877Z,92.88
2022-10-15T22:16:30.897Z,92.92
2022-10-15T22:19:32.452Z,94.66
2022-10-15T22:22:34.002Z,96.37
2022-10-15T22:25:35.561Z,96.70
2022-10-15T22:28:37.233Z,98.10
2022-10-15T22:31:38.765Z,98.81
2022-10-15T22:34:40.325Z,98.98
2022-10-15T22:37:41.968Z,98.25
2022-10-15T22:40:43.524Z,98.71
2022-10-15T22:43:45.182Z,99.55
2022-10-15T22:46:49.124Z,99.97
2022-10-15T22:49:50.781Z,100.00
2022-10-15T22:52:52.405Z,100.00
2022-10-15T22:55:57.544Z,100.00
2022-10-15T22:58:59.320Z,100.00
2022-10-15T23:02:00.938Z,100.00
2022-10-15T23:05:02.593Z,100.00
2022-10-15T23:08:04.248Z,100.00
2022-10-15T23:11:09.636Z,100.00
2022-10-15T23:14:12.460Z,100.00
2022-10-15T23:17:14.162Z,100.00
2022-10-15T23:20:15.762Z,100.00
2022-10-15T23:23:17.354Z,100.00
2022-10-15T23:26:18.904Z,100.00
2022-10-15T23:29:21.534Z,100.00
2022-10-15T23:32:23.112Z,100.00
2022-10-15T23:35:24.728Z,100.00
2022-10-15T23:38:26.405Z,100.00
2022-10-15T23:41:28.666Z,100.00
2022-10-15T23:44:30.227Z,100.00
2022-10-15T23:47:31.979Z,100.00
2022-10-15T23:50:34.342Z,100.00
2022-10-15T23:53:35.992Z,100.00
2022-10-15T23:56:37.564Z,100.00
2022-10-15T23:59:39.089Z,100.00
